createdAt,value
2023-02-06T00:02:19.780Z,34.85
2023-02-06T00:07:25.787Z,37.30
2023-02-06T00:12:30.188Z,40.65
2023-02-06T00:17:37.439Z,38.88
2023-02-06T00:22:43.420Z,36.65
2023-02-06T00:27:47.939Z,38.42
2023-02-06T00:32:52.592Z,33.70
2023-02-06T00:37:59.877Z,35.40
2023-02-06T00:43:05.345Z,36.60
2023-02-06T00:48:10.307Z,35.47
2023-02-06T00:53:16.274Z,35.80
2023-02-06T00:58:20.711Z,35.72
2023-02-06T01:03:25.474Z,36.00
2023-02-06T01:08:31.594Z,31.05
2023-02-06T01:13:37.265Z,31.42
2023-02-06T01:18:42.657Z,29.93
2023-02-06T01:23:49.512Z,29.95
2023-02-06T01:28:55.825Z,30.25
2023-02-06T01:34:01.721Z,28.27
2023-02-06T01:39:08.136Z,32.08
2023-02-06T01:44:16.176Z,34.78
2023-02-06T01:49:26.086Z,28.77
2023-02-06T01:54:32.711Z,29.42
2023-02-06T01:59:38.170Z,29.05
2023-02-06T02:04:42.943Z,35.58
2023-02-06T02:09:49.179Z,31.30
2023-02-06T02:14:56.247Z,29.92
2023-02-06T02:20:34.278Z,34.58
2023-02-06T02:26:17.165Z,34.15
2023-02-06T02:32:03.746Z,31.63
2023-02-06T02:37:17.510Z,36.33
2023-02-06T02:42:34.017Z,29.87
2023-02-06T02:47:47.419Z,24.98
2023-02-06T02:52:54.518Z,25.58
2023-02-06T02:58:05.053Z,30.30
2023-02-06T03:03:12.524Z,30.52
2023-02-06T03:08:28.201Z,28.38
2023-02-06T03:13:38.412Z,26.55
2023-02-06T03:18:47.685Z,33.10
2023-02-06T03:23:59.520Z,31.05
2023-02-06T03:29:07.619Z,31.35
2023-02-06T03:34:17.948Z,29.67
2023-02-06T03:39:24.695Z,31.02
2023-02-06T03:44:34.542Z,24.77
2023-02-06T03:49:42.054Z,26.88
2023-02-06T03:54:54.191Z,25.33
2023-02-06T03:59:58.817Z,26.63
2023-02-06T04:05:03.265Z,30.45
2023-02-06T04:10:09.695Z,34.85
2023-02-06T04:15:14.149Z,26.95
2023-02-06T04:20:18.806Z,28.90
2023-02-06T04:25:24.914Z,33.30
2023-02-06T04:30:29.591Z,30.35
2023-02-06T04:35:34.703Z,34.43
2023-02-06T04:40:41.028Z,28.50
2023-02-06T04:45:45.641Z,28.20
2023-02-06T04:50:51.091Z,29.65
2023-02-06T04:56:03.433Z,32.63
2023-02-06T05:01:08.727Z,31.77
2023-02-06T05:06:13.523Z,32.63
2023-02-06T05:11:19.542Z,33.47
2023-02-06T05:16:24.004Z,37.78
2023-02-06T05:21:28.868Z,28.53
2023-02-06T05:26:34.881Z,31.90
2023-02-06T05:31:39.526Z,34.35
2023-02-06T05:36:44.146Z,34.43
2023-02-06T05:41:50.204Z,27.30
2023-02-06T05:46:54.859Z,30.58
2023-02-06T05:51:59.478Z,33.53
2023-02-06T05:57:05.560Z,35.13
2023-02-06T06:02:10.237Z,36.15
2023-02-06T06:07:15.057Z,41.30
2023-02-06T06:12:20.995Z,40.80
2023-02-06T06:17:26.532Z,37.60
2023-02-06T06:22:33.922Z,36.90
2023-02-06T06:27:40.364Z,27.75
2023-02-06T06:32:46.035Z,33.63
2023-02-06T06:37:50.931Z,37.42
2023-02-06T06:42:56.902Z,43.45
2023-02-06T06:48:01.667Z,36.17
2023-02-06T06:53:06.219Z,44.40
2023-02-06T06:58:12.550Z,38.95
2023-02-06T07:03:17.165Z,37.13
2023-02-06T07:08:21.716Z,37.38
2023-02-06T07:13:27.777Z,37.05
2023-02-06T07:18:32.811Z,37.97
2023-02-06T07:23:39.136Z,28.13
2023-02-06T07:28:45.103Z,27.42
2023-02-06T07:33:52.237Z,32.20
2023-02-06T07:38:59.015Z,28.98
2023-02-06T07:44:08.725Z,25.08
2023-02-06T07:49:14.965Z,25.98
2023-02-06T07:54:20.871Z,23.95
2023-02-06T07:59:27.130Z,25.58
2023-02-06T08:04:35.337Z,30.77
2023-02-06T08:09:40.134Z,29.35
2023-02-06T08:14:46.141Z,31.23
2023-02-06T08:19:50.759Z,30.05
2023-02-06T08:24:55.422Z,28.30
2023-02-06T08:30:01.272Z,31.57
2023-02-06T08:35:06.534Z,29.02
2023-02-06T08:40:12.308Z,32.80
2023-02-06T08:45:18.341Z,30.85
2023-02-06T08:50:22.898Z,23.30
2023-02-06T08:55:27.354Z,23.95
2023-02-06T09:00:33.247Z,26.05
2023-02-06T09:05:38.196Z,30.40
2023-02-06T09:10:42.738Z,36.57
2023-02-06T09:15:53.611Z,26.63
2023-02-06T09:21:06.590Z,25.10
2023-02-06T09:26:11.898Z,29.70
2023-02-06T09:31:17.807Z,38.58
2023-02-06T09:36:23.215Z,22.92
2023-02-06T09:41:32.513Z,26.90
2023-02-06T09:46:47.118Z,25.45
2023-02-06T09:52:08.070Z,20.85
2023-02-06T09:57:19.164Z,18.73
2023-02-06T10:02:40.055Z,31.05
2023-02-06T10:07:58.129Z,20.55
2023-02-06T10:13:10.236Z,20.40
2023-02-06T10:18:22.802Z,18.45
2023-02-06T10:23:34.939Z,21.65
2023-02-06T10:28:41.765Z,21.02
2023-02-06T10:34:01.530Z,17.55
2023-02-06T10:39:21.010Z,18.08
2023-02-06T10:44:31.869Z,12.95
2023-02-06T10:49:45.623Z,16.35
2023-02-06T10:54:53.904Z,19.58
2023-02-06T11:00:01.629Z,16.75
2023-02-06T11:05:11.661Z,19.25
2023-02-06T11:10:18.411Z,15.52
2023-02-06T11:15:32.744Z,17.02
2023-02-06T11:20:43.093Z,16.77
2023-02-06T11:25:51.717Z,17.73
2023-02-06T11:30:58.756Z,15.63
2023-02-06T11:36:05.544Z,17.83
2023-02-06T11:41:20.327Z,17.35
2023-02-06T11:46:27.520Z,14.10
2023-02-06T11:51:54.135Z,19.60
2023-02-06T11:57:20.370Z,19.67
2023-02-06T12:02:28.582Z,18.98
2023-02-06T12:07:38.999Z,16.77
2023-02-06T12:12:47.533Z,23.90
2023-02-06T12:17:56.612Z,20.30
2023-02-06T12:23:07.106Z,21.45
2023-02-06T12:28:17.215Z,22.13
2023-02-06T12:33:25.675Z,19.30
2023-02-06T12:38:41.099Z,22.08
2023-02-06T12:43:54.808Z,20.35
2023-02-06T12:49:07.833Z,21.17
2023-02-06T12:54:18.545Z,18.10
2023-02-06T12:59:57.828Z,17.02
2023-02-06T13:05:06.115Z,25.50
2023-02-06T13:10:21.483Z,27.10
2023-02-06T13:15:28.790Z,20.85
2023-02-06T13:20:33.603Z,19.42
2023-02-06T13:25:54.508Z,18.23
2023-02-06T13:31:02.558Z,17.60
2023-02-06T13:36:10.134Z,17.45
2023-02-06T13:41:32.831Z,16.92
2023-02-06T13:47:01.603Z,17.15
2023-02-06T13:52:13.069Z,13.95
2023-02-06T13:57:29.497Z,14.15
2023-02-06T14:02:38.618Z,17.17
2023-02-06T14:07:55.543Z,19.13
2023-02-06T14:13:18.542Z,19.40
2023-02-06T14:18:44.841Z,20.67
2023-02-06T14:24:07.647Z,24.73
2023-02-06T14:29:26.973Z,28.58
2023-02-06T14:34:50.513Z,24.55
2023-02-06T14:39:56.502Z,25.08
2023-02-06T14:45:06.275Z,27.98
2023-02-06T14:50:20.140Z,31.00
2023-02-06T14:55:31.946Z,25.92
2023-02-06T15:00:37.577Z,25.75
2023-02-06T15:10:45.979Z,28.13
2023-02-06T15:15:57.228Z,33.25
2023-02-06T15:21:03.585Z,31.73
2023-02-06T15:26:19.698Z,31.88
2023-02-06T15:31:25.816Z,44.03
2023-02-06T15:36:32.775Z,51.08
2023-02-06T15:41:37.385Z,48.90
2023-02-06T15:46:43.558Z,63.72
2023-02-06T15:51:58.529Z,68.22
2023-02-06T15:57:06.690Z,89.83
2023-02-06T16:02:24.579Z,55.65
2023-02-06T16:07:32.105Z,106.95
2023-02-06T16:12:39.401Z,87.53
2023-02-06T16:17:45.081Z,58.35
2023-02-06T16:27:54.252Z,64.00
2023-02-06T16:33:09.447Z,88.63
2023-02-06T16:38:13.837Z,71.63
2023-02-06T16:43:18.074Z,66.93
2023-02-06T16:48:23.738Z,65.45
2023-02-06T16:53:28.725Z,84.40
2023-02-06T16:58:35.150Z,165.77
2023-02-06T17:03:42.650Z,245.82
2023-02-06T17:08:47.477Z,150.68
2023-02-06T17:13:51.821Z,146.60
2023-02-06T17:18:57.672Z,87.10
2023-02-06T17:24:02.102Z,101.72
2023-02-06T17:29:06.460Z,96.30
2023-02-06T17:34:12.324Z,95.28
2023-02-06T17:39:16.708Z,147.35
2023-02-06T17:44:21.250Z,186.55
2023-02-06T17:49:26.932Z,144.48
2023-02-06T17:59:35.561Z,145.52
2023-02-06T18:04:41.444Z,88.60
2023-02-06T18:09:47.161Z,105.25
2023-02-06T18:14:51.539Z,112.93
2023-02-06T18:19:57.350Z,110.93
2023-02-06T18:25:05.262Z,126.13
2023-02-06T18:30:11.183Z,143.90
2023-02-06T18:35:17.242Z,140.98
2023-02-06T18:40:21.771Z,81.35
2023-02-06T18:45:31.322Z,103.57
2023-02-06T18:50:41.156Z,105.82
2023-02-06T18:55:45.377Z,188.45
2023-02-06T19:00:49.695Z,161.60
2023-02-06T19:05:57.425Z,247.30
2023-02-06T19:11:04.686Z,359.95
2023-02-06T19:16:13.924Z,306.70
2023-02-06T19:21:21.736Z,203.45
2023-02-06T19:26:26.837Z,232.80
2023-02-06T19:31:32.419Z,202.50
2023-02-06T19:36:38.679Z,287.33
2023-02-06T19:41:43.328Z,219.63
2023-02-06T19:46:47.707Z,241.35
2023-02-06T19:51:53.581Z,236.52
2023-02-06T19:56:57.929Z,247.77
2023-02-06T20:02:03.668Z,258.48
2023-02-06T20:07:09.618Z,255.30
2023-02-06T20:12:14.369Z,222.80
2023-02-06T20:17:18.682Z,239.23
2023-02-06T20:22:24.595Z,239.57
2023-02-06T20:27:29.304Z,269.88
2023-02-06T20:32:33.726Z,259.55
2023-02-06T20:37:39.670Z,304.65
2023-02-06T20:42:44.638Z,298.50
2023-02-06T20:47:49.041Z,329.33
2023-02-06T20:52:54.923Z,339.88
2023-02-06T20:57:59.374Z,357.02
2023-02-06T21:03:03.830Z,356.85
2023-02-06T21:08:10.000Z,375.07
2023-02-06T21:18:18.912Z,386.15
2023-02-06T21:23:25.136Z,432.25
2023-02-06T21:28:29.474Z,513.20
2023-02-06T21:33:34.096Z,470.60
2023-02-06T21:38:40.683Z,464.48
2023-02-06T21:43:45.744Z,439.83
2023-02-06T21:48:54.109Z,471.23
2023-02-06T21:53:59.994Z,440.67
2023-02-06T21:59:04.566Z,396.85
2023-02-06T22:04:10.159Z,413.88
2023-02-06T22:14:23.203Z,467.40
2023-02-06T22:19:27.677Z,436.55
2023-02-06T22:24:33.418Z,419.45
2023-02-06T22:34:41.596Z,445.27
2023-02-06T22:39:47.631Z,436.90
2023-02-06T22:44:52.160Z,431.00
2023-02-06T22:49:56.343Z,391.85
2023-02-06T22:55:03.319Z,423.42
2023-02-06T23:00:11.673Z,387.92
2023-02-06T23:05:16.079Z,401.00
2023-02-06T23:10:21.888Z,387.33
2023-02-06T23:15:26.573Z,384.25
2023-02-06T23:20:32.633Z,406.80
2023-02-06T23:25:44.653Z,409.95
2023-02-06T23:30:49.232Z,391.50
2023-02-06T23:35:53.606Z,409.08
2023-02-06T23:41:05.829Z,411.80
2023-02-06T23:46:12.438Z,369.40
2023-02-06T23:51:17.464Z,336.98
2023-02-06T23:56:26.624Z,328.50
